sensor_id;sensor_type;location;lat;lon;timestamp;temperature;humidity
14908;DHT22;7545;52.092;7.006;2022-09-30T00:00:25;9.70;99.90
14908;DHT22;7545;52.092;7.006;2022-09-30T00:02:51;9.70;99.90
14908;DHT22;7545;52.092;7.006;2022-09-30T00:05:17;9.70;99.90
14908;DHT22;7545;52.092;7.006;2022-09-30T00:07:42;9.70;99.90
14908;DHT22;7545;52.092;7.006;2022-09-30T00:10:08;9.70;99.90
14908;DHT22;7545;52.092;7.006;2022-09-30T00:12:34;9.70;99.90
14908;DHT22;7545;52.092;7.006;2022-09-30T00:14:59;9.70;99.90
14908;DHT22;7545;52.092;7.006;2022-09-30T00:17:25;9.70;99.90
14908;DHT22;7545;52.092;7.006;2022-09-30T00:19:52;9.70;99.90
14908;DHT22;7545;52.092;7.006;2022-09-30T00:22:18;9.70;99.90
14908;DHT22;7545;52.092;7.006;2022-09-30T00:24:43;9.60;99.90
14908;DHT22;7545;52.092;7.006;2022-09-30T00:27:10;9.60;99.90
14908;DHT22;7545;52.092;7.006;2022-09-30T00:29:36;9.60;99.90
14908;DHT22;7545;52.092;7.006;2022-09-30T00:32:02;9.60;99.90
14908;DHT22;7545;52.092;7.006;2022-09-30T00:34:28;9.50;99.90
14908;DHT22;7545;52.092;7.006;2022-09-30T00:36:54;9.50;99.90
14908;DHT22;7545;52.092;7.006;2022-09-30T00:39:26;9.40;99.90
14908;DHT22;7545;52.092;7.006;2022-09-30T00:41:56;9.40;99.90
14908;DHT22;7545;52.092;7.006;2022-09-30T00:45:04;9.40;99.90
14908;DHT22;7545;52.092;7.006;2022-09-30T00:47:50;9.40;99.90
14908;DHT22;7545;52.092;7.006;2022-09-30T00:50:23;9.40;99.90
14908;DHT22;7545;52.092;7.006;2022-09-30T00:57:56;9.30;99.90
14908;DHT22;7545;52.092;7.006;2022-09-30T01:00:25;9.20;99.90
14908;DHT22;7545;52.092;7.006;2022-09-30T01:02:51;9.20;99.90
14908;DHT22;7545;52.092;7.006;2022-09-30T01:05:17;9.10;99.90
14908;DHT22;7545;52.092;7.006;2022-09-30T01:07:45;9.20;99.90
14908;DHT22;7545;52.092;7.006;2022-09-30T01:10:11;9.10;99.90
14908;DHT22;7545;52.092;7.006;2022-09-30T01:12:37;9.10;99.90
14908;DHT22;7545;52.092;7.006;2022-09-30T01:15:04;9.10;99.90
14908;DHT22;7545;52.092;7.006;2022-09-30T01:18:06;9.10;99.90
14908;DHT22;7545;52.092;7.006;2022-09-30T01:20:48;9.00;99.90
14908;DHT22;7545;52.092;7.006;2022-09-30T01:23:22;9.00;99.90
14908;DHT22;7545;52.092;7.006;2022-09-30T01:28:51;9.00;99.90
14908;DHT22;7545;52.092;7.006;2022-09-30T01:31:27;9.00;99.90
14908;DHT22;7545;52.092;7.006;2022-09-30T01:34:13;9.00;99.90
14908;DHT22;7545;52.092;7.006;2022-09-30T01:47:31;8.90;99.90
14908;DHT22;7545;52.092;7.006;2022-09-30T01:50:09;8.90;99.90
14908;DHT22;7545;52.092;7.006;2022-09-30T01:52:55;8.90;99.90
14908;DHT22;7545;52.092;7.006;2022-09-30T01:55:28;8.90;99.90
14908;DHT22;7545;52.092;7.006;2022-09-30T02:00:57;8.80;99.90
14908;DHT22;7545;52.092;7.006;2022-09-30T02:03:38;8.90;99.90
14908;DHT22;7545;52.092;7.006;2022-09-30T02:06:12;8.80;99.90
14908;DHT22;7545;52.092;7.006;2022-09-30T02:08:58;8.80;99.90
14908;DHT22;7545;52.092;7.006;2022-09-30T02:11:32;8.80;99.90
14908;DHT22;7545;52.092;7.006;2022-09-30T02:14:09;8.80;99.90
14908;DHT22;7545;52.092;7.006;2022-09-30T02:16:39;8.80;99.90
14908;DHT22;7545;52.092;7.006;2022-09-30T02:19:21;8.80;99.90
14908;DHT22;7545;52.092;7.006;2022-09-30T02:21:55;8.80;99.90
14908;DHT22;7545;52.092;7.006;2022-09-30T02:24:24;8.80;99.90
14908;DHT22;7545;52.092;7.006;2022-09-30T02:26:52;8.80;99.90
14908;DHT22;7545;52.092;7.006;2022-09-30T02:29:26;8.80;99.90
14908;DHT22;7545;52.092;7.006;2022-09-30T02:31:55;8.80;99.90
14908;DHT22;7545;52.092;7.006;2022-09-30T02:34:30;8.80;99.90
14908;DHT22;7545;52.092;7.006;2022-09-30T02:37:18;8.80;99.90
14908;DHT22;7545;52.092;7.006;2022-09-30T02:39:50;8.80;99.90
14908;DHT22;7545;52.092;7.006;2022-09-30T02:42:23;8.80;99.90
14908;DHT22;7545;52.092;7.006;2022-09-30T02:44:54;8.80;99.90
14908;DHT22;7545;52.092;7.006;2022-09-30T02:49:50;8.80;99.90
14908;DHT22;7545;52.092;7.006;2022-09-30T02:52:35;8.70;99.90
14908;DHT22;7545;52.092;7.006;2022-09-30T02:55:20;8.70;99.90
14908;DHT22;7545;52.092;7.006;2022-09-30T02:58:12;8.70;99.90
14908;DHT22;7545;52.092;7.006;2022-09-30T03:00:39;8.70;99.90
14908;DHT22;7545;52.092;7.006;2022-09-30T03:03:11;8.60;99.90
14908;DHT22;7545;52.092;7.006;2022-09-30T03:05:37;8.60;99.90
14908;DHT22;7545;52.092;7.006;2022-09-30T03:08:03;8.60;99.90
14908;DHT22;7545;52.092;7.006;2022-09-30T03:10:29;8.60;99.90
14908;DHT22;7545;52.092;7.006;2022-09-30T03:18:46;8.60;99.90
14908;DHT22;7545;52.092;7.006;2022-09-30T03:21:45;8.50;99.90
14908;DHT22;7545;52.092;7.006;2022-09-30T03:24:20;8.50;99.90
14908;DHT22;7545;52.092;7.006;2022-09-30T03:27:05;8.50;99.90
14908;DHT22;7545;52.092;7.006;2022-09-30T03:45:39;8.30;99.90
14908;DHT22;7545;52.092;7.006;2022-09-30T03:48:08;8.30;99.90
14908;DHT22;7545;52.092;7.006;2022-09-30T03:50:36;8.30;99.90
14908;DHT22;7545;52.092;7.006;2022-09-30T03:53:03;8.30;99.90
14908;DHT22;7545;52.092;7.006;2022-09-30T03:55:33;8.20;99.90
14908;DHT22;7545;52.092;7.006;2022-09-30T03:57:59;8.20;99.90
14908;DHT22;7545;52.092;7.006;2022-09-30T04:00:24;8.20;99.90
14908;DHT22;7545;52.092;7.006;2022-09-30T04:02:50;8.20;99.90
14908;DHT22;7545;52.092;7.006;2022-09-30T04:05:15;8.20;99.90
14908;DHT22;7545;52.092;7.006;2022-09-30T04:07:41;8.20;99.90
14908;DHT22;7545;52.092;7.006;2022-09-30T04:10:07;8.10;99.90
14908;DHT22;7545;52.092;7.006;2022-09-30T04:12:33;8.10;99.90
14908;DHT22;7545;52.092;7.006;2022-09-30T04:14:58;8.10;99.90
14908;DHT22;7545;52.092;7.006;2022-09-30T04:17:24;8.10;99.90
14908;DHT22;7545;52.092;7.006;2022-09-30T04:19:50;8.10;99.90
14908;DHT22;7545;52.092;7.006;2022-09-30T04:22:15;8.10;99.90
14908;DHT22;7545;52.092;7.006;2022-09-30T04:24:41;8.10;99.90
14908;DHT22;7545;52.092;7.006;2022-09-30T04:27:08;8.00;99.90
14908;DHT22;7545;52.092;7.006;2022-09-30T04:29:33;8.00;99.90
14908;DHT22;7545;52.092;7.006;2022-09-30T04:31:59;8.00;99.90
14908;DHT22;7545;52.092;7.006;2022-09-30T04:34:25;8.00;99.90
14908;DHT22;7545;52.092;7.006;2022-09-30T04:36:51;8.00;99.90
14908;DHT22;7545;52.092;7.006;2022-09-30T04:39:16;8.00;99.90
14908;DHT22;7545;52.092;7.006;2022-09-30T04:41:42;8.00;99.90
14908;DHT22;7545;52.092;7.006;2022-09-30T04:44:08;7.90;99.90
14908;DHT22;7545;52.092;7.006;2022-09-30T04:46:34;7.90;99.90
14908;DHT22;7545;52.092;7.006;2022-09-30T04:49:03;7.90;99.90
14908;DHT22;7545;52.092;7.006;2022-09-30T04:51:29;8.00;99.90
14908;DHT22;7545;52.092;7.006;2022-09-30T04:53:55;8.00;99.90
14908;DHT22;7545;52.092;7.006;2022-09-30T04:56:21;7.90;99.90
14908;DHT22;7545;52.092;7.006;2022-09-30T04:58:47;7.90;99.90
14908;DHT22;7545;52.092;7.006;2022-09-30T05:01:16;7.90;99.90
14908;DHT22;7545;52.092;7.006;2022-09-30T05:03:41;7.90;99.90
14908;DHT22;7545;52.092;7.006;2022-09-30T05:06:08;7.90;99.90
14908;DHT22;7545;52.092;7.006;2022-09-30T05:08:33;7.90;99.90
14908;DHT22;7545;52.092;7.006;2022-09-30T05:11:04;7.80;99.90
14908;DHT22;7545;52.092;7.006;2022-09-30T05:13:35;7.80;99.90
14908;DHT22;7545;52.092;7.006;2022-09-30T05:16:02;7.80;99.90
14908;DHT22;7545;52.092;7.006;2022-09-30T05:18:28;7.80;99.90
14908;DHT22;7545;52.092;7.006;2022-09-30T05:20:55;7.80;99.90
14908;DHT22;7545;52.092;7.006;2022-09-30T05:23:22;7.80;99.90
14908;DHT22;7545;52.092;7.006;2022-09-30T05:25:49;7.80;99.90
14908;DHT22;7545;52.092;7.006;2022-09-30T05:28:15;7.70;99.90
14908;DHT22;7545;52.092;7.006;2022-09-30T05:30:41;7.70;99.90
14908;DHT22;7545;52.092;7.006;2022-09-30T05:33:08;7.80;99.90
14908;DHT22;7545;52.092;7.006;2022-09-30T05:35:34;7.80;99.90
14908;DHT22;7545;52.092;7.006;2022-09-30T05:38:01;7.80;99.90
14908;DHT22;7545;52.092;7.006;2022-09-30T05:40:29;7.70;99.90
14908;DHT22;7545;52.092;7.006;2022-09-30T05:42:58;7.70;99.90
14908;DHT22;7545;52.092;7.006;2022-09-30T05:45:25;7.70;99.90
14908;DHT22;7545;52.092;7.006;2022-09-30T05:47:54;7.70;99.90
14908;DHT22;7545;52.092;7.006;2022-09-30T05:50:21;7.70;99.90
14908;DHT22;7545;52.092;7.006;2022-09-30T05:52:47;7.70;99.90
14908;DHT22;7545;52.092;7.006;2022-09-30T05:55:14;7.70;99.90
14908;DHT22;7545;52.092;7.006;2022-09-30T05:57:40;7.70;99.90
14908;DHT22;7545;52.092;7.006;2022-09-30T06:00:05;7.70;99.90
14908;DHT22;7545;52.092;7.006;2022-09-30T06:02:31;7.70;99.90
14908;DHT22;7545;52.092;7.006;2022-09-30T06:04:57;7.80;99.90
14908;DHT22;7545;52.092;7.006;2022-09-30T06:07:23;7.80;99.90
14908;DHT22;7545;52.092;7.006;2022-09-30T06:09:49;7.80;99.90
14908;DHT22;7545;52.092;7.006;2022-09-30T06:12:14;7.80;99.90
14908;DHT22;7545;52.092;7.006;2022-09-30T06:14:40;7.80;99.90
14908;DHT22;7545;52.092;7.006;2022-09-30T06:17:06;7.90;99.90
14908;DHT22;7545;52.092;7.006;2022-09-30T06:19:31;7.90;99.90
14908;DHT22;7545;52.092;7.006;2022-09-30T06:21:58;7.90;99.90
14908;DHT22;7545;52.092;7.006;2022-09-30T06:24:25;7.90;99.90
14908;DHT22;7545;52.092;7.006;2022-09-30T06:26:50;8.00;99.90
14908;DHT22;7545;52.092;7.006;2022-09-30T06:29:16;8.00;99.90
14908;DHT22;7545;52.092;7.006;2022-09-30T06:31:41;8.00;99.90
14908;DHT22;7545;52.092;7.006;2022-09-30T06:34:07;8.00;99.90
14908;DHT22;7545;52.092;7.006;2022-09-30T06:36:33;8.00;99.90
14908;DHT22;7545;52.092;7.006;2022-09-30T06:38:59;8.10;99.90
14908;DHT22;7545;52.092;7.006;2022-09-30T06:41:26;8.00;99.90
14908;DHT22;7545;52.092;7.006;2022-09-30T06:43:52;8.10;99.90
14908;DHT22;7545;52.092;7.006;2022-09-30T06:46:19;8.20;99.90
14908;DHT22;7545;52.092;7.006;2022-09-30T06:48:48;8.30;99.90
14908;DHT22;7545;52.092;7.006;2022-09-30T06:51:14;8.30;99.90
14908;DHT22;7545;52.092;7.006;2022-09-30T06:53:39;8.40;99.90
14908;DHT22;7545;52.092;7.006;2022-09-30T06:56:06;8.40;99.90
14908;DHT22;7545;52.092;7.006;2022-09-30T06:58:31;8.50;99.90
14908;DHT22;7545;52.092;7.006;2022-09-30T07:01:02;8.60;99.90
14908;DHT22;7545;52.092;7.006;2022-09-30T07:03:31;8.60;99.90
14908;DHT22;7545;52.092;7.006;2022-09-30T07:05:58;8.70;99.90
14908;DHT22;7545;52.092;7.006;2022-09-30T07:08:25;8.70;99.90
14908;DHT22;7545;52.092;7.006;2022-09-30T07:10:53;8.70;99.90
14908;DHT22;7545;52.092;7.006;2022-09-30T07:13:19;8.70;99.90
14908;DHT22;7545;52.092;7.006;2022-09-30T07:15:44;8.80;99.90
14908;DHT22;7545;52.092;7.006;2022-09-30T07:18:10;8.80;99.90
14908;DHT22;7545;52.092;7.006;2022-09-30T07:20:36;8.90;99.90
14908;DHT22;7545;52.092;7.006;2022-09-30T07:23:01;8.90;99.90
14908;DHT22;7545;52.092;7.006;2022-09-30T07:25:27;8.90;99.90
14908;DHT22;7545;52.092;7.006;2022-09-30T07:27:52;9.00;99.90
14908;DHT22;7545;52.092;7.006;2022-09-30T07:30:20;9.00;99.90
14908;DHT22;7545;52.092;7.006;2022-09-30T07:32:46;9.10;99.90
14908;DHT22;7545;52.092;7.006;2022-09-30T07:35:12;9.10;99.90
14908;DHT22;7545;52.092;7.006;2022-09-30T07:37:38;9.10;99.90
14908;DHT22;7545;52.092;7.006;2022-09-30T07:40:06;9.20;99.90
14908;DHT22;7545;52.092;7.006;2022-09-30T07:42:31;9.20;99.90
14908;DHT22;7545;52.092;7.006;2022-09-30T07:44:57;9.30;99.90
14908;DHT22;7545;52.092;7.006;2022-09-30T07:47:23;9.30;99.90
14908;DHT22;7545;52.092;7.006;2022-09-30T07:49:49;9.30;99.90
14908;DHT22;7545;52.092;7.006;2022-09-30T07:52:14;9.40;99.90
14908;DHT22;7545;52.092;7.006;2022-09-30T07:54:40;9.40;99.90
14908;DHT22;7545;52.092;7.006;2022-09-30T07:57:06;9.50;99.90
14908;DHT22;7545;52.092;7.006;2022-09-30T07:59:35;9.50;99.90
14908;DHT22;7545;52.092;7.006;2022-09-30T08:02:01;9.50;99.90
14908;DHT22;7545;52.092;7.006;2022-09-30T08:04:27;9.60;99.90
14908;DHT22;7545;52.092;7.006;2022-09-30T08:06:56;9.60;99.90
14908;DHT22;7545;52.092;7.006;2022-09-30T08:09:24;9.70;99.90
14908;DHT22;7545;52.092;7.006;2022-09-30T08:11:50;9.80;99.90
14908;DHT22;7545;52.092;7.006;2022-09-30T08:14:20;9.80;99.90
14908;DHT22;7545;52.092;7.006;2022-09-30T08:16:46;9.80;99.90
14908;DHT22;7545;52.092;7.006;2022-09-30T08:19:14;9.90;99.90
14908;DHT22;7545;52.092;7.006;2022-09-30T08:21:41;10.00;99.90
14908;DHT22;7545;52.092;7.006;2022-09-30T08:24:07;10.00;99.90
14908;DHT22;7545;52.092;7.006;2022-09-30T08:26:33;10.00;99.90
14908;DHT22;7545;52.092;7.006;2022-09-30T08:28:59;10.20;99.90
14908;DHT22;7545;52.092;7.006;2022-09-30T08:31:25;10.20;99.90
14908;DHT22;7545;52.092;7.006;2022-09-30T08:33:50;10.40;99.90
14908;DHT22;7545;52.092;7.006;2022-09-30T08:36:26;10.40;99.90
14908;DHT22;7545;52.092;7.006;2022-09-30T08:38:52;10.50;99.90
14908;DHT22;7545;52.092;7.006;2022-09-30T08:52:14;10.70;99.90
14908;DHT22;7545;52.092;7.006;2022-09-30T08:54:47;10.70;99.90
14908;DHT22;7545;52.092;7.006;2022-09-30T08:57:13;10.80;99.90
14908;DHT22;7545;52.092;7.006;2022-09-30T09:00:00;10.80;99.90
14908;DHT22;7545;52.092;7.006;2022-09-30T09:02:33;10.80;99.90
14908;DHT22;7545;52.092;7.006;2022-09-30T09:05:04;10.90;99.90
14908;DHT22;7545;52.092;7.006;2022-09-30T09:18:26;11.30;99.90
14908;DHT22;7545;52.092;7.006;2022-09-30T09:23:54;11.40;99.90
14908;DHT22;7545;52.092;7.006;2022-09-30T09:26:22;11.50;99.90
14908;DHT22;7545;52.092;7.006;2022-09-30T09:31:44;11.60;99.90
14908;DHT22;7545;52.092;7.006;2022-09-30T09:34:13;11.70;99.90
14908;DHT22;7545;52.092;7.006;2022-09-30T09:36:48;11.70;99.90
14908;DHT22;7545;52.092;7.006;2022-09-30T09:39:40;11.80;99.90
14908;DHT22;7545;52.092;7.006;2022-09-30T09:45:02;12.00;99.90
14908;DHT22;7545;52.092;7.006;2022-09-30T09:47:29;12.00;99.90
14908;DHT22;7545;52.092;7.006;2022-09-30T09:49:57;12.10;99.90
14908;DHT22;7545;52.092;7.006;2022-09-30T09:55:18;12.30;99.90
14908;DHT22;7545;52.092;7.006;2022-09-30T09:57:45;12.40;99.90
14908;DHT22;7545;52.092;7.006;2022-09-30T10:00:24;12.50;99.90
14908;DHT22;7545;52.092;7.006;2022-09-30T10:03:23;12.60;99.90
14908;DHT22;7545;52.092;7.006;2022-09-30T10:06:06;12.80;99.90
14908;DHT22;7545;52.092;7.006;2022-09-30T10:08:38;12.90;99.90
14908;DHT22;7545;52.092;7.006;2022-09-30T10:11:19;13.00;99.90
14908;DHT22;7545;52.092;7.006;2022-09-30T10:13:45;13.10;99.90
14908;DHT22;7545;52.092;7.006;2022-09-30T10:16:33;13.20;99.90
14908;DHT22;7545;52.092;7.006;2022-09-30T10:19:01;13.30;99.90
14908;DHT22;7545;52.092;7.006;2022-09-30T10:21:29;13.40;99.90
14908;DHT22;7545;52.092;7.006;2022-09-30T10:23:54;13.50;99.90
14908;DHT22;7545;52.092;7.006;2022-09-30T10:26:24;13.60;99.90
14908;DHT22;7545;52.092;7.006;2022-09-30T10:28:58;13.60;99.90
14908;DHT22;7545;52.092;7.006;2022-09-30T10:34:10;13.80;99.90
14908;DHT22;7545;52.092;7.006;2022-09-30T10:36:40;13.90;99.90
14908;DHT22;7545;52.092;7.006;2022-09-30T10:39:26;13.90;99.90
14908;DHT22;7545;52.092;7.006;2022-09-30T10:42:26;14.00;99.90
14908;DHT22;7545;52.092;7.006;2022-09-30T10:44:59;14.10;99.90
14908;DHT22;7545;52.092;7.006;2022-09-30T10:47:31;14.20;99.90
14908;DHT22;7545;52.092;7.006;2022-09-30T10:50:02;14.30;99.90
14908;DHT22;7545;52.092;7.006;2022-09-30T10:57:45;14.40;99.90
14908;DHT22;7545;52.092;7.006;2022-09-30T11:00:15;14.50;99.90
14908;DHT22;7545;52.092;7.006;2022-09-30T11:02:59;14.60;99.90
14908;DHT22;7545;52.092;7.006;2022-09-30T11:05:40;14.70;99.90
14908;DHT22;7545;52.092;7.006;2022-09-30T11:11:05;14.80;99.90
14908;DHT22;7545;52.092;7.006;2022-09-30T11:18:46;14.80;99.90
14908;DHT22;7545;52.092;7.006;2022-09-30T11:24:06;14.80;99.90
14908;DHT22;7545;52.092;7.006;2022-09-30T11:26:49;14.90;99.90
14908;DHT22;7545;52.092;7.006;2022-09-30T11:29:47;15.00;99.90
14908;DHT22;7545;52.092;7.006;2022-09-30T11:43:29;15.40;99.90
14908;DHT22;7545;52.092;7.006;2022-09-30T11:51:49;15.50;99.90
14908;DHT22;7545;52.092;7.006;2022-09-30T11:59:29;15.60;99.90
14908;DHT22;7545;52.092;7.006;2022-09-30T12:02:02;15.60;99.90
14908;DHT22;7545;52.092;7.006;2022-09-30T12:04:42;15.60;99.90
14908;DHT22;7545;52.092;7.006;2022-09-30T12:07:23;15.70;99.90
14908;DHT22;7545;52.092;7.006;2022-09-30T12:09:54;15.70;99.90
14908;DHT22;7545;52.092;7.006;2022-09-30T12:12:23;15.70;99.90
14908;DHT22;7545;52.092;7.006;2022-09-30T12:15:01;15.80;99.90
14908;DHT22;7545;52.092;7.006;2022-09-30T12:17:43;15.80;99.90
14908;DHT22;7545;52.092;7.006;2022-09-30T12:20:24;15.90;99.90
14908;DHT22;7545;52.092;7.006;2022-09-30T12:22:54;15.90;99.90
14908;DHT22;7545;52.092;7.006;2022-09-30T12:25:30;16.00;99.90
14908;DHT22;7545;52.092;7.006;2022-09-30T12:31:15;16.10;99.90
14908;DHT22;7545;52.092;7.006;2022-09-30T12:36:49;16.20;99.90
14908;DHT22;7545;52.092;7.006;2022-09-30T12:47:39;16.20;99.90
14908;DHT22;7545;52.092;7.006;2022-09-30T12:50:14;16.20;99.90
14908;DHT22;7545;52.092;7.006;2022-09-30T12:52:41;16.30;99.90
14908;DHT22;7545;52.092;7.006;2022-09-30T12:55:25;16.30;99.90
14908;DHT22;7545;52.092;7.006;2022-09-30T12:57:57;16.40;99.90
14908;DHT22;7545;52.092;7.006;2022-09-30T13:00:28;16.40;99.90
14908;DHT22;7545;52.092;7.006;2022-09-30T13:03:13;16.50;99.90
14908;DHT22;7545;52.092;7.006;2022-09-30T13:09:04;16.50;99.90
14908;DHT22;7545;52.092;7.006;2022-09-30T13:10:58;16.50;99.90
14908;DHT22;7545;52.092;7.006;2022-09-30T13:13:29;16.60;99.90
14908;DHT22;7545;52.092;7.006;2022-09-30T13:15:58;16.50;99.90
14908;DHT22;7545;52.092;7.006;2022-09-30T13:28:49;16.50;99.90
14908;DHT22;7545;52.092;7.006;2022-09-30T13:31:17;16.50;99.90
14908;DHT22;7545;52.092;7.006;2022-09-30T13:34:02;16.40;99.90
14908;DHT22;7545;52.092;7.006;2022-09-30T13:42:16;16.40;99.90
14908;DHT22;7545;52.092;7.006;2022-09-30T13:50:27;16.40;99.90
14908;DHT22;7545;52.092;7.006;2022-09-30T13:52:57;16.30;99.90
14908;DHT22;7545;52.092;7.006;2022-09-30T14:01:24;16.20;99.90
14908;DHT22;7545;52.092;7.006;2022-09-30T14:15:25;16.10;99.90
14908;DHT22;7545;52.092;7.006;2022-09-30T14:20:57;16.10;99.90
14908;DHT22;7545;52.092;7.006;2022-09-30T14:23:26;16.00;99.90
14908;DHT22;7545;52.092;7.006;2022-09-30T14:31:12;16.10;99.90
14908;DHT22;7545;52.092;7.006;2022-09-30T14:33:40;16.10;99.90
14908;DHT22;7545;52.092;7.006;2022-09-30T14:36:15;16.10;99.90
14908;DHT22;7545;52.092;7.006;2022-09-30T14:38:45;16.20;99.90
14908;DHT22;7545;52.092;7.006;2022-09-30T14:41:20;16.20;99.90
14908;DHT22;7545;52.092;7.006;2022-09-30T14:43:49;16.10;99.90
14908;DHT22;7545;52.092;7.006;2022-09-30T14:46:33;16.10;99.90
14908;DHT22;7545;52.092;7.006;2022-09-30T14:49:04;16.20;99.90
14908;DHT22;7545;52.092;7.006;2022-09-30T14:51:36;16.20;99.90
14908;DHT22;7545;52.092;7.006;2022-09-30T14:54:18;16.10;99.90
14908;DHT22;7545;52.092;7.006;2022-09-30T14:56:44;16.00;99.90
14908;DHT22;7545;52.092;7.006;2022-09-30T14:59:18;16.00;99.90
14908;DHT22;7545;52.092;7.006;2022-09-30T15:01:50;16.00;99.90
14908;DHT22;7545;52.092;7.006;2022-09-30T15:04:24;16.00;99.90
14908;DHT22;7545;52.092;7.006;2022-09-30T15:06:51;16.00;99.90
14908;DHT22;7545;52.092;7.006;2022-09-30T15:09:29;16.00;99.90
14908;DHT22;7545;52.092;7.006;2022-09-30T15:12:05;16.00;99.90
14908;DHT22;7545;52.092;7.006;2022-09-30T15:14:32;15.90;99.90
14908;DHT22;7545;52.092;7.006;2022-09-30T15:16:58;15.90;99.90
14908;DHT22;7545;52.092;7.006;2022-09-30T15:19:31;15.80;99.90
14908;DHT22;7545;52.092;7.006;2022-09-30T15:22:01;15.80;99.90
14908;DHT22;7545;52.092;7.006;2022-09-30T15:24:28;15.80;99.90
14908;DHT22;7545;52.092;7.006;2022-09-30T15:27:01;15.70;99.90
14908;DHT22;7545;52.092;7.006;2022-09-30T15:29:27;15.70;99.90
14908;DHT22;7545;52.092;7.006;2022-09-30T15:31:59;15.70;99.90
14908;DHT22;7545;52.092;7.006;2022-09-30T15:34:27;15.70;99.90
14908;DHT22;7545;52.092;7.006;2022-09-30T15:37:01;15.70;99.90
14908;DHT22;7545;52.092;7.006;2022-09-30T15:39:39;15.70;99.90
14908;DHT22;7545;52.092;7.006;2022-09-30T15:45:28;15.70;99.90
14908;DHT22;7545;52.092;7.006;2022-09-30T15:47:59;15.70;99.90
14908;DHT22;7545;52.092;7.006;2022-09-30T15:50:47;15.70;99.90
14908;DHT22;7545;52.092;7.006;2022-09-30T15:53:22;15.70;99.90
14908;DHT22;7545;52.092;7.006;2022-09-30T15:56:15;15.70;99.90
14908;DHT22;7545;52.092;7.006;2022-09-30T16:03:55;15.70;99.90
14908;DHT22;7545;52.092;7.006;2022-09-30T16:06:28;15.70;99.90
14908;DHT22;7545;52.092;7.006;2022-09-30T16:09:05;15.60;99.90
14908;DHT22;7545;52.092;7.006;2022-09-30T16:11:34;15.60;99.90
14908;DHT22;7545;52.092;7.006;2022-09-30T16:14:03;15.60;99.90
14908;DHT22;7545;52.092;7.006;2022-09-30T16:16:31;15.50;99.90
14908;DHT22;7545;52.092;7.006;2022-09-30T16:18:58;15.50;99.90
14908;DHT22;7545;52.092;7.006;2022-09-30T16:21:43;15.50;99.90
14908;DHT22;7545;52.092;7.006;2022-09-30T16:27:21;15.40;99.90
14908;DHT22;7545;52.092;7.006;2022-09-30T16:29:47;15.40;99.90
14908;DHT22;7545;52.092;7.006;2022-09-30T16:32:13;15.30;99.90
14908;DHT22;7545;52.092;7.006;2022-09-30T16:34:39;15.30;99.90
14908;DHT22;7545;52.092;7.006;2022-09-30T16:37:12;15.30;99.90
14908;DHT22;7545;52.092;7.006;2022-09-30T16:39:38;15.30;99.90
14908;DHT22;7545;52.092;7.006;2022-09-30T16:42:05;15.30;99.90
14908;DHT22;7545;52.092;7.006;2022-09-30T16:44:30;15.20;99.90
14908;DHT22;7545;52.092;7.006;2022-09-30T16:47:00;15.30;99.90
14908;DHT22;7545;52.092;7.006;2022-09-30T16:49:26;15.20;99.90
14908;DHT22;7545;52.092;7.006;2022-09-30T16:51:52;15.20;99.90
14908;DHT22;7545;52.092;7.006;2022-09-30T16:54:18;15.10;99.90
14908;DHT22;7545;52.092;7.006;2022-09-30T16:56:44;15.10;99.90
14908;DHT22;7545;52.092;7.006;2022-09-30T16:59:15;15.10;99.90
14908;DHT22;7545;52.092;7.006;2022-09-30T17:01:41;15.10;99.90
14908;DHT22;7545;52.092;7.006;2022-09-30T17:04:07;15.00;99.90
14908;DHT22;7545;52.092;7.006;2022-09-30T17:06:34;15.00;99.90
14908;DHT22;7545;52.092;7.006;2022-09-30T17:09:00;14.90;99.90
14908;DHT22;7545;52.092;7.006;2022-09-30T17:11:30;14.90;99.90
14908;DHT22;7545;52.092;7.006;2022-09-30T17:13:58;14.80;99.90
14908;DHT22;7545;52.092;7.006;2022-09-30T17:16:24;14.80;99.90
14908;DHT22;7545;52.092;7.006;2022-09-30T17:18:50;14.70;99.90
14908;DHT22;7545;52.092;7.006;2022-09-30T17:21:22;14.70;99.90
14908;DHT22;7545;52.092;7.006;2022-09-30T17:23:48;14.70;99.90
14908;DHT22;7545;52.092;7.006;2022-09-30T17:26:16;14.60;99.90
14908;DHT22;7545;52.092;7.006;2022-09-30T17:28:42;14.50;99.90
14908;DHT22;7545;52.092;7.006;2022-09-30T17:31:08;14.50;99.90
14908;DHT22;7545;52.092;7.006;2022-09-30T17:33:36;14.50;99.90
14908;DHT22;7545;52.092;7.006;2022-09-30T17:36:05;14.40;99.90
14908;DHT22;7545;52.092;7.006;2022-09-30T17:38:33;14.40;99.90
14908;DHT22;7545;52.092;7.006;2022-09-30T17:40:59;14.40;99.90
14908;DHT22;7545;52.092;7.006;2022-09-30T17:43:44;14.30;99.90
14908;DHT22;7545;52.092;7.006;2022-09-30T17:46:13;14.20;99.90
14908;DHT22;7545;52.092;7.006;2022-09-30T17:48:43;14.20;99.90
14908;DHT22;7545;52.092;7.006;2022-09-30T17:51:09;14.20;99.90
14908;DHT22;7545;52.092;7.006;2022-09-30T17:53:35;14.20;99.90
14908;DHT22;7545;52.092;7.006;2022-09-30T17:56:13;14.20;99.90
14908;DHT22;7545;52.092;7.006;2022-09-30T17:58:41;14.10;99.90
14908;DHT22;7545;52.092;7.006;2022-09-30T18:01:09;14.10;99.90
14908;DHT22;7545;52.092;7.006;2022-09-30T18:03:35;14.10;99.90
14908;DHT22;7545;52.092;7.006;2022-09-30T18:06:01;14.00;99.90
14908;DHT22;7545;52.092;7.006;2022-09-30T18:08:27;14.00;99.90
14908;DHT22;7545;52.092;7.006;2022-09-30T18:10:54;14.00;99.90
14908;DHT22;7545;52.092;7.006;2022-09-30T18:13:25;14.00;99.90
14908;DHT22;7545;52.092;7.006;2022-09-30T18:15:51;14.00;99.90
14908;DHT22;7545;52.092;7.006;2022-09-30T18:18:17;13.90;99.90
14908;DHT22;7545;52.092;7.006;2022-09-30T18:20:46;13.90;99.90
14908;DHT22;7545;52.092;7.006;2022-09-30T18:23:13;13.90;99.90
14908;DHT22;7545;52.092;7.006;2022-09-30T18:25:41;13.90;99.90
14908;DHT22;7545;52.092;7.006;2022-09-30T18:28:09;13.80;99.90
14908;DHT22;7545;52.092;7.006;2022-09-30T18:30:39;13.80;99.90
14908;DHT22;7545;52.092;7.006;2022-09-30T18:33:05;13.80;99.90
14908;DHT22;7545;52.092;7.006;2022-09-30T18:35:36;13.80;99.90
14908;DHT22;7545;52.092;7.006;2022-09-30T18:38:03;13.80;99.90
14908;DHT22;7545;52.092;7.006;2022-09-30T18:40:29;13.70;99.90
14908;DHT22;7545;52.092;7.006;2022-09-30T18:42:58;13.70;99.90
14908;DHT22;7545;52.092;7.006;2022-09-30T18:45:29;13.70;99.90
14908;DHT22;7545;52.092;7.006;2022-09-30T18:47:57;13.70;99.90
14908;DHT22;7545;52.092;7.006;2022-09-30T18:50:24;13.70;99.90
14908;DHT22;7545;52.092;7.006;2022-09-30T18:52:51;13.70;99.90
14908;DHT22;7545;52.092;7.006;2022-09-30T18:55:17;13.70;99.90
14908;DHT22;7545;52.092;7.006;2022-09-30T18:57:43;13.60;99.90
14908;DHT22;7545;52.092;7.006;2022-09-30T19:00:13;13.70;99.90
14908;DHT22;7545;52.092;7.006;2022-09-30T19:02:38;13.70;99.90
14908;DHT22;7545;52.092;7.006;2022-09-30T19:05:06;13.60;99.90
14908;DHT22;7545;52.092;7.006;2022-09-30T19:07:32;13.60;99.90
14908;DHT22;7545;52.092;7.006;2022-09-30T19:09:59;13.70;99.90
14908;DHT22;7545;52.092;7.006;2022-09-30T19:12:30;13.60;99.90
14908;DHT22;7545;52.092;7.006;2022-09-30T19:14:55;13.60;99.90
14908;DHT22;7545;52.092;7.006;2022-09-30T19:17:21;13.60;99.90
14908;DHT22;7545;52.092;7.006;2022-09-30T19:19:47;13.50;99.90
14908;DHT22;7545;52.092;7.006;2022-09-30T19:22:15;13.50;99.90
14908;DHT22;7545;52.092;7.006;2022-09-30T19:24:40;13.50;99.90
14908;DHT22;7545;52.092;7.006;2022-09-30T19:27:07;13.50;99.90